地図

経路データ

SID SEASON NUMBER BASIN SUBBASIN NAME ISO_TIME NATURE LAT LON WMO_WIND WMO_PRES WMO_AGENCY TRACK_TYPE DIST2LAND LANDFALL IFLAG USA_AGENCY USA_ATCF_ID USA_LAT USA_LON USA_RECORD USA_STATUS USA_WIND USA_PRES USA_SSHS USA_R34_NE USA_R34_SE USA_R34_SW USA_R34_NW USA_R50_NE USA_R50_SE USA_R50_SW USA_R50_NW USA_R64_NE USA_R64_SE USA_R64_SW USA_R64_NW USA_POCI USA_ROCI USA_RMW USA_EYE TOKYO_LAT TOKYO_LON TOKYO_GRADE TOKYO_WIND TOKYO_PRES TOKYO_R50_DIR TOKYO_R50_LONG TOKYO_R50_SHORT TOKYO_R30_DIR TOKYO_R30_LONG TOKYO_R30_SHORT TOKYO_LAND CMA_LAT CMA_LON CMA_CAT CMA_WIND CMA_PRES HKO_LAT HKO_LON HKO_CAT HKO_WIND HKO_PRES NEWDELHI_LAT NEWDELHI_LON NEWDELHI_GRADE NEWDELHI_WIND NEWDELHI_PRES NEWDELHI_CI NEWDELHI_DP NEWDELHI_POCI REUNION_LAT REUNION_LON REUNION_TYPE REUNION_WIND REUNION_PRES REUNION_TNUM REUNION_CI REUNION_RMW REUNION_R34_NE REUNION_R34_SE REUNION_R34_SW REUNION_R34_NW REUNION_R50_NE REUNION_R50_SE REUNION_R50_SW REUNION_R50_NW REUNION_R64_NE REUNION_R64_SE REUNION_R64_SW REUNION_R64_NW BOM_LAT BOM_LON BOM_TYPE BOM_WIND BOM_PRES BOM_TNUM BOM_CI BOM_RMW BOM_R34_NE BOM_R34_SE BOM_R34_SW BOM_R34_NW BOM_R50_NE BOM_R50_SE BOM_R50_SW BOM_R50_NW BOM_R64_NE BOM_R64_SE BOM_R64_SW BOM_R64_NW BOM_ROCI BOM_POCI BOM_EYE BOM_POS_METHOD BOM_PRES_METHOD NADI_LAT NADI_LON NADI_CAT NADI_WIND NADI_PRES WELLINGTON_LAT WELLINGTON_LON WELLINGTON_WIND WELLINGTON_PRES DS824_LAT DS824_LON DS824_STAGE DS824_WIND DS824_PRES TD9636_LAT TD9636_LON TD9636_STAGE TD9636_WIND TD9636_PRES TD9635_LAT TD9635_LON TD9635_WIND TD9635_PRES TD9635_ROCI NEUMANN_LAT NEUMANN_LON NEUMANN_CLASS NEUMANN_WIND NEUMANN_PRES MLC_LAT MLC_LON MLC_CLASS MLC_WIND MLC_PRES USA_GUST BOM_GUST BOM_GUST_PER REUNION_GUST REUNION_GUST_PER USA_SEAHGT USA_SEARAD_NE USA_SEARAD_SE USA_SEARAD_SW USA_SEARAD_NW STORM_SPEED STORM_DIR
1929042S16069 1929 13 SI MM NOT_NAMED 1929-02-11 06:00:00 NR -15.8000 68.6000 reunion main 1247 1208 _____O________ -1 -15.8000 68.6000 99 9.90000 7 227
1929042S16069 1929 13 SI MM NOT_NAMED 1929-02-11 09:00:00 NR -16.0430 68.3333 main 1208 1175 _____P________ -1 -16.0430 68.3333 99 7 226
1929042S16069 1929 13 SI MM NOT_NAMED 1929-02-11 12:00:00 NR -16.2912 68.0618 main 1175 1137 _____P________ -1 -16.2912 68.0618 99 7 226
1929042S16069 1929 13 SI MM NOT_NAMED 1929-02-11 15:00:00 NR -16.5503 67.7816 main 1132 1094 _____P________ -1 -16.5503 67.7816 99 8 226
1929042S16069 1929 13 SI MM NOT_NAMED 1929-02-11 18:00:00 NR -16.8256 67.4884 main 1094 1052 _____P________ -1 -16.8256 67.4884 99 8 225
1929042S16069 1929 13 SI MM NOT_NAMED 1929-02-11 21:00:00 NR -17.1228 67.1781 main 1052 1010 _____P________ -1 -17.1228 67.1781 99 9 225
1929042S16069 1929 13 SI MM NOT_NAMED 1929-02-12 00:00:00 NR -17.4473 66.8462 main 1000 956 _____P________ -1 -17.4473 66.8462 99 10 224
1929042S16069 1929 13 SI MM NOT_NAMED 1929-02-12 03:00:00 NR -17.8046 66.4883 main 956 902 _____P________ -1 -17.8046 66.4883 99 10 223
1929042S16069 1929 13 SI MM NOT_NAMED 1929-02-12 06:00:00 NR -18.2000 66.1000 reunion main 902 849 _____O________ -1 -18.2000 66.1000 99 9.90000 11 223
1929042S16069 1929 13 SI MM NOT_NAMED 1929-02-12 09:00:00 NR -18.6380 65.6784 main 849 796 _____P________ -1 -18.6380 65.6784 99 12 222
1929042S16069 1929 13 SI MM NOT_NAMED 1929-02-12 12:00:00 NR -19.1192 65.2282 main 786 735 _____P________ -1 -19.1192 65.2282 99 13 221
1929042S16069 1929 13 SI MM NOT_NAMED 1929-02-12 15:00:00 NR -19.6431 64.7563 main 735 678 _____P________ -1 -19.6431 64.7563 99 14 220
1929042S16069 1929 13 SI MM NOT_NAMED 1929-02-12 18:00:00 NR -20.2095 64.2691 main 678 626 _____P________ -1 -20.2095 64.2691 99 15 218
1929042S16069 1929 13 SI MM NOT_NAMED 1929-02-12 21:00:00 NR -20.8182 63.7732 main 627 584 _____P________ -1 -20.8182 63.7732 99 16 216
1929042S16069 1929 13 SI MM NOT_NAMED 1929-02-13 00:00:00 NR -21.4694 63.2753 main 586 555 _____P________ -1 -21.4694 63.2753 99 16 214
1929042S16069 1929 13 SI MM NOT_NAMED 1929-02-13 03:00:00 NR -22.1632 62.7820 main 559 544 _____P________ -1 -22.1632 62.7820 99 17 212
1929042S16069 1929 13 SI MM NOT_NAMED 1929-02-13 06:00:00 NR -22.9000 62.3000 reunion main 545 542 _____O________ -1 -22.9000 62.3000 99 9.90000 19 209
1929042S16069 1929 13 SI MM NOT_NAMED 1929-02-13 09:00:00 NR -23.7765 61.7974 main 560 560 _____P________ -1 -23.7765 61.7974 99 20 207
1929042S16069 1929 13 SI MM NOT_NAMED 1929-02-13 12:00:00 NR -24.7157 61.2931 main 597 597 _____P________ -1 -24.7157 61.2931 99 21 205
1929042S16069 1929 13 SI MM NOT_NAMED 1929-02-13 15:00:00 NR -25.6863 60.7960 main 661 661 _____P________ -1 -25.6863 60.7960 99 21 204
1929042S16069 1929 13 SI MM NOT_NAMED 1929-02-13 18:00:00 NR -26.6565 60.3161 main 741 741 _____P________ -1 -26.6565 60.3161 99 21 204
1929042S16069 1929 13 SI MM NOT_NAMED 1929-02-13 21:00:00 NR -27.5944 59.8643 main 816 811 _____P________ -1 -27.5944 59.8643 99 20 203
1929042S16069 1929 13 SI MM NOT_NAMED 1929-02-14 00:00:00 NR -28.4685 59.4525 main 885 880 _____P________ -1 -28.4685 59.4525 99 18 202
1929042S16069 1929 13 SI MM NOT_NAMED 1929-02-14 03:00:00 NR -29.2474 59.0933 main 939 939 _____P________ -1 -29.2474 59.0933 99 15 202
1929042S16069 1929 13 SI MM NOT_NAMED 1929-02-14 06:00:00 NR -29.9000 58.8000 reunion main 1002 1002 _____O________ -1 -29.9000 58.8000 99 9.90000 12 201
1929042S16069 1929 13 SI MM NOT_NAMED 1929-02-14 09:00:00 NR -30.4039 58.5824 main 1048 1048 _____P________ -1 -30.4039 58.5824 99 9 200
1929042S16069 1929 13 SI MM NOT_NAMED 1929-02-14 12:00:00 NR -30.7707 58.4357 main 1086 1086 _____P________ -1 -30.7707 58.4357 99 7 198
1929042S16069 1929 13 SI MM NOT_NAMED 1929-02-14 15:00:00 NR -31.0206 58.3507 main 1107 1105 _____P________ -1 -31.0206 58.3507 99 4 194
1929042S16069 1929 13 SI MM NOT_NAMED 1929-02-14 18:00:00 NR -31.1731 58.3177 main 1127 1127 _____P________ -1 -31.1731 58.3177 99 2 0
1929042S16069 1929 13 SI MM NOT_NAMED 1929-02-14 21:00:00 NR -31.2479 58.3266 main 1127 1127 _____P________ -1 -31.2479 58.3266 99 1 160
1929042S16069 1929 13 SI MM NOT_NAMED 1929-02-15 00:00:00 NR -31.2644 58.3669 main 1140 1129 _____P________ -1 -31.2644 58.3669 99 1 86
1929042S16069 1929 13 SI MM NOT_NAMED 1929-02-15 03:00:00 NR -31.2419 58.4282 main 1129 1129 _____P________ -1 -31.2419 58.4282 99 1 61
1929042S16069 1929 13 SI MM NOT_NAMED 1929-02-15 06:00:00 NR -31.2000 58.5000 reunion main 1131 _____O________ -1 -31.2000 58.5000 99 9.90000 1 52

IBTrACS Databaseについて

本データベースは、米国NOAAが公開する1842年以降の世界の熱帯低気圧のベストトラックデータアーカイブInternational Best Track Archive for Climate Stewardship (IBTrACS)を、ウェブで閲覧しやすい形式に変換したものです。

最終更新日:2021-12-08